Time;durP1;ratioP1;P1;durP2;ratioP2;P2;SDS_P1;SDS_P2;PMS_P1;PMS_P2;Temp;Humidity;BMP_temperature;BMP_pressure;BME280_temperature;BME280_humidity;BME280_pressure;Samples;Min_cycle;Max_cycle;Signal;HPM_P1;HPM_P2
2023/07/11 00:01:09;;;;;;;5.00;2.20;;;;;;;;;;4993434;28;20026;-75
2023/07/11 00:03:35;;;;;;;2.95;2.00;;;;;;;;;;4993037;28;20061;-75
2023/07/11 00:06:03;;;;;;;6.28;2.03;;;;;;;;;;4993017;28;20061;-75
2023/07/11 00:08:29;;;;;;;3.78;1.88;;;;;;;;;;4992027;28;20138;-75
2023/07/11 00:10:55;;;;;;;4.38;2.13;;;;;;;;;;4992976;28;20073;-75
2023/07/11 00:13:21;;;;;;;4.53;2.17;;;;;;;;;;4993235;28;20389;-75
2023/07/11 00:15:58;;;;;;;5.10;2.47;;;;;;;;;;4992910;28;20058;-75
2023/07/11 00:18:24;;;;;;;4.95;2.22;;;;;;;;;;4992787;28;20082;-75
2023/07/11 00:20:50;;;;;;;5.20;2.33;;;;;;;;;;4992861;28;20073;-75
2023/07/11 00:23:16;;;;;;;4.03;2.40;;;;;;;;;;4991557;28;20034;-75
2023/07/11 00:25:42;;;;;;;2.65;2.25;;;;;;;;;;4992892;28;20053;-75
2023/07/11 00:28:08;;;;;;;3.08;1.80;;;;;;;;;;4992769;28;20038;-75
2023/07/11 00:30:34;;;;;;;3.80;1.88;;;;;;;;;;4992633;28;20026;-75
2023/07/11 00:33:00;;;;;;;3.15;1.48;;;;;;;;;;4992981;28;20089;-75
2023/07/11 00:35:26;;;;;;;4.65;1.52;;;;;;;;;;4992511;28;20031;-75
2023/07/11 00:37:52;;;;;;;3.58;1.60;;;;;;;;;;4992823;28;20512;-75
2023/07/11 00:40:18;;;;;;;2.92;1.45;;;;;;;;;;4992764;28;20097;-75
2023/07/11 00:42:44;;;;;;;4.78;1.60;;;;;;;;;;4992697;28;20528;-75
2023/07/11 00:45:28;;;;;;;2.63;1.50;;;;;;;;;;4992811;28;20037;-75
2023/07/11 00:47:54;;;;;;;2.83;1.50;;;;;;;;;;4992707;28;20026;-75
2023/07/11 00:50:21;;;;;;;4.55;1.60;;;;;;;;;;4992613;28;20601;-75
2023/07/11 00:52:47;;;;;;;4.18;1.40;;;;;;;;;;4992735;28;20591;-75
2023/07/11 00:55:14;;;;;;;3.83;1.05;;;;;;;;;;4994733;28;20542;-75
2023/07/11 00:57:41;;;;;;;2.00;1.20;;;;;;;;;;4996600;28;20105;-75
2023/07/11 01:00:08;;;;;;;2.60;1.38;;;;;;;;;;4996275;28;20041;-75
2023/07/11 01:02:34;;;;;;;6.35;1.40;;;;;;;;;;4996178;28;20354;-75
2023/07/11 01:05:01;;;;;;;1.90;1.20;;;;;;;;;;4996164;28;20041;-75
2023/07/11 01:07:34;;;;;;;4.72;1.73;;;;;;;;;;4995530;28;20517;-75
2023/07/11 01:10:00;;;;;;;2.17;1.23;;;;;;;;;;4996120;28;20030;-75
2023/07/11 01:12:28;;;;;;;2.53;1.50;;;;;;;;;;4995939;28;20022;-75
2023/07/11 01:14:54;;;;;;;5.80;1.67;;;;;;;;;;4996186;28;20030;-75
2023/07/11 01:17:23;;;;;;;3.47;1.50;;;;;;;;;;4995996;28;20044;-75
2023/07/11 01:19:49;;;;;;;5.03;1.55;;;;;;;;;;4995838;28;20513;-75
2023/07/11 01:22:15;;;;;;;4.25;1.73;;;;;;;;;;4995859;28;20385;-75
2023/07/11 01:24:41;;;;;;;5.03;1.60;;;;;;;;;;4995729;28;20026;-75
2023/07/11 01:27:07;;;;;;;5.85;1.70;;;;;;;;;;4995808;28;20026;-75
2023/07/11 01:29:33;;;;;;;3.85;1.63;;;;;;;;;;4995718;28;20081;-75
2023/07/11 01:31:59;;;;;;;3.45;1.58;;;;;;;;;;4995626;28;20022;-75
2023/07/11 01:34:25;;;;;;;4.25;1.65;;;;;;;;;;4995700;28;20085;-75
2023/07/11 01:36:51;;;;;;;4.93;1.90;;;;;;;;;;4995524;28;20022;-75
2023/07/11 01:39:18;;;;;;;3.42;1.60;;;;;;;;;;4995523;28;20129;-75
2023/07/11 01:41:44;;;;;;;3.35;1.40;;;;;;;;;;4995772;28;20022;-75
2023/07/11 01:44:13;;;;;;;1.63;1.48;;;;;;;;;;4995769;28;20026;-75
2023/07/11 01:46:39;;;;;;;3.83;1.50;;;;;;;;;;4995436;28;20117;-75
2023/07/11 01:49:05;;;;;;;5.88;1.50;;;;;;;;;;4995415;28;20105;-75
2023/07/11 01:51:31;;;;;;;4.55;1.58;;;;;;;;;;4995268;28;20381;-75
2023/07/11 01:53:58;;;;;;;2.45;1.40;;;;;;;;;;4995228;28;20033;-75
2023/07/11 01:56:24;;;;;;;5.95;1.58;;;;;;;;;;4995237;28;20374;-75
2023/07/11 01:58:50;;;;;;;4.35;1.45;;;;;;;;;;4995204;28;20057;-75
2023/07/11 02:01:16;;;;;;;2.55;1.20;;;;;;;;;;4995172;28;20022;-75
2023/07/11 02:03:42;;;;;;;2.58;1.27;;;;;;;;;;4995076;28;20026;-75
2023/07/11 02:06:08;;;;;;;5.18;1.50;;;;;;;;;;4994872;28;20038;-75
2023/07/11 02:08:34;;;;;;;4.15;1.38;;;;;;;;;;4994764;28;20046;-75
2023/07/11 02:11:00;;;;;;;3.33;1.50;;;;;;;;;;4994927;28;20045;-75
2023/07/11 02:13:26;;;;;;;3.97;1.58;;;;;;;;;;4994890;28;20052;-75
2023/07/11 02:15:52;;;;;;;3.13;1.27;;;;;;;;;;4994682;28;20490;-75
2023/07/11 02:18:18;;;;;;;1.98;1.25;;;;;;;;;;4994849;28;20037;-75
2023/07/11 02:20:45;;;;;;;4.38;1.65;;;;;;;;;;4995086;28;20029;-75
2023/07/11 02:23:14;;;;;;;4.15;1.63;;;;;;;;;;4994685;28;20022;-75
2023/07/11 02:25:40;;;;;;;2.15;1.30;;;;;;;;;;4994706;28;20113;-75
2023/07/11 02:28:06;;;;;;;4.50;1.70;;;;;;;;;;4993301;28;20458;-75
2023/07/11 02:30:32;;;;;;;3.85;1.70;;;;;;;;;;4994584;28;20022;-75
2023/07/11 02:32:58;;;;;;;3.33;1.75;;;;;;;;;;4994778;28;20174;-75
2023/07/11 02:35:25;;;;;;;4.60;1.80;;;;;;;;;;4994371;28;20042;-75
2023/07/11 02:37:51;;;;;;;2.92;1.60;;;;;;;;;;4994535;28;20101;-75
2023/07/11 02:40:18;;;;;;;4.75;1.95;;;;;;;;;;4994327;28;20026;-75
2023/07/11 02:42:44;;;;;;;4.43;2.20;;;;;;;;;;4994589;28;20018;-75
2023/07/11 02:45:11;;;;;;;3.55;2.00;;;;;;;;;;4994332;28;20034;-75
2023/07/11 02:47:37;;;;;;;4.57;2.08;;;;;;;;;;4994559;28;20022;-75
2023/07/11 02:50:04;;;;;;;4.28;2.13;;;;;;;;;;4994161;28;20084;-75
2023/07/11 02:52:30;;;;;;;2.47;1.48;;;;;;;;;;4994127;28;20042;-75
2023/07/11 02:54:56;;;;;;;2.28;1.67;;;;;;;;;;4994196;28;20453;-75
2023/07/11 02:57:22;;;;;;;4.00;1.90;;;;;;;;;;4994019;28;20084;-75
2023/07/11 02:59:48;;;;;;;3.85;1.70;;;;;;;;;;4994107;28;20369;-75
2023/07/11 03:02:14;;;;;;;5.40;1.88;;;;;;;;;;5000649;28;20445;-75
2023/07/11 03:04:40;;;;;;;4.95;1.60;;;;;;;;;;5013527;28;20033;-75
2023/07/11 03:07:06;;;;;;;5.38;1.85;;;;;;;;;;5013089;28;20026;-75
2023/07/11 03:09:32;;;;;;;4.85;2.13;;;;;;;;;;5013573;28;20025;-75
2023/07/11 03:11:58;;;;;;;2.47;2.20;;;;;;;;;;5013443;28;20030;-75
2023/07/11 03:14:24;;;;;;;7.30;2.60;;;;;;;;;;5013322;28;20029;-75
2023/07/11 03:16:53;;;;;;;7.75;2.90;;;;;;;;;;5012554;28;20484;-75
2023/07/11 03:19:22;;;;;;;6.57;2.97;;;;;;;;;;5013296;28;20037;-75
2023/07/11 03:21:48;;;;;;;5.00;2.75;;;;;;;;;;5013300;28;20026;-75
2023/07/11 03:24:15;;;;;;;4.70;2.88;;;;;;;;;;5013165;28;20105;-75
2023/07/11 03:26:41;;;;;;;6.03;2.67;;;;;;;;;;5013213;28;20022;-75
2023/07/11 03:29:08;;;;;;;7.05;3.00;;;;;;;;;;5013146;28;20022;-75
2023/07/11 03:31:34;;;;;;;5.63;2.83;;;;;;;;;;5013209;28;20377;-75
2023/07/11 03:34:00;;;;;;;5.28;2.97;;;;;;;;;;5012898;28;20041;-75
2023/07/11 03:36:26;;;;;;;6.25;2.92;;;;;;;;;;5012909;28;20125;-75
2023/07/11 03:38:52;;;;;;;5.32;3.42;;;;;;;;;;5012980;28;20091;-75
2023/07/11 03:41:18;;;;;;;5.15;2.65;;;;;;;;;;5012969;28;20052;-75
2023/07/11 03:43:44;;;;;;;5.45;3.13;;;;;;;;;;5012992;28;20030;-75
2023/07/11 03:46:10;;;;;;;4.30;2.90;;;;;;;;;;5012823;28;20384;-75
2023/07/11 03:48:36;;;;;;;6.82;3.13;;;;;;;;;;5012781;28;20037;-75
2023/07/11 03:51:02;;;;;;;5.35;2.80;;;;;;;;;;4993652;28;20027;-75
2023/07/11 03:53:28;;;;;;;3.53;2.42;;;;;;;;;;4993141;28;20033;-75
2023/07/11 03:55:54;;;;;;;5.05;2.38;;;;;;;;;;4993096;28;20470;-75
2023/07/11 03:58:20;;;;;;;6.10;2.58;;;;;;;;;;4993122;28;20112;-75
2023/07/11 04:00:47;;;;;;;7.13;2.85;;;;;;;;;;4993052;28;20026;-75
2023/07/11 04:03:13;;;;;;;3.72;2.70;;;;;;;;;;4993176;28;20037;-75
2023/07/11 04:05:41;;;;;;;4.57;2.78;;;;;;;;;;4993106;28;20054;-75
2023/07/11 04:08:08;;;;;;;5.88;2.92;;;;;;;;;;4992970;28;20058;-75
2023/07/11 04:10:34;;;;;;;6.80;2.80;;;;;;;;;;4993334;28;20031;-75
2023/07/11 04:13:00;;;;;;;3.97;3.05;;;;;;;;;;4993006;28;20050;-75
2023/07/11 04:15:26;;;;;;;7.20;3.15;;;;;;;;;;4992566;28;20456;-75
2023/07/11 04:17:52;;;;;;;6.35;3.13;;;;;;;;;;4993036;28;20054;-75
2023/07/11 04:20:18;;;;;;;4.95;3.05;;;;;;;;;;4993181;28;20064;-75
2023/07/11 04:22:44;;;;;;;6.32;3.40;;;;;;;;;;4993153;28;20030;-75
2023/07/11 04:25:10;;;;;;;4.03;3.30;;;;;;;;;;4993058;28;20106;-75
2023/07/11 04:27:36;;;;;;;6.40;3.40;;;;;;;;;;4992924;28;20446;-75
2023/07/11 04:30:03;;;;;;;6.40;3.75;;;;;;;;;;4994829;28;20081;-74
2023/07/11 04:32:29;;;;;;;5.55;3.60;;;;;;;;;;4996718;28;20034;-75
2023/07/11 04:34:55;;;;;;;6.28;3.55;;;;;;;;;;4996639;28;20030;-75
2023/07/11 04:37:21;;;;;;;7.13;3.83;;;;;;;;;;4996612;28;20034;-75
2023/07/11 04:39:47;;;;;;;6.55;3.40;;;;;;;;;;4996540;28;20026;-75
2023/07/11 04:42:13;;;;;;;8.27;3.55;;;;;;;;;;4996467;28;20489;-75
2023/07/11 04:44:39;;;;;;;8.85;3.78;;;;;;;;;;4996446;28;20069;-75
2023/07/11 04:47:06;;;;;;;7.47;3.88;;;;;;;;;;4996606;28;20148;-75
2023/07/11 04:49:32;;;;;;;7.97;3.42;;;;;;;;;;4996736;28;20085;-75
2023/07/11 04:51:58;;;;;;;9.35;4.38;;;;;;;;;;4996364;28;20072;-75
2023/07/11 04:54:24;;;;;;;6.25;3.63;;;;;;;;;;4996522;28;20030;-75
2023/07/11 04:56:57;;;;;;;5.78;3.70;;;;;;;;;;4996252;28;20035;-75
2023/07/11 04:59:23;;;;;;;8.52;4.20;;;;;;;;;;4996337;28;20023;-75
2023/07/11 05:01:49;;;;;;;8.20;4.18;;;;;;;;;;4996260;28;20034;-75
2023/07/11 05:04:15;;;;;;;6.47;3.90;;;;;;;;;;4996123;28;20034;-74
2023/07/11 05:06:41;;;;;;;6.53;3.80;;;;;;;;;;4996153;28;20083;-74
2023/07/11 05:09:07;;;;;;;6.13;4.05;;;;;;;;;;4994934;28;20129;-74
2023/07/11 05:11:33;;;;;;;6.40;3.97;;;;;;;;;;4996098;28;20026;-75
2023/07/11 05:13:59;;;;;;;8.68;3.58;;;;;;;;;;4996025;28;20033;-75
2023/07/11 05:16:28;;;;;;;6.80;3.47;;;;;;;;;;4995919;28;20037;-75
2023/07/11 05:18:55;;;;;;;6.30;3.55;;;;;;;;;;4996250;28;20029;-75
2023/07/11 05:21:21;;;;;;;5.82;3.50;;;;;;;;;;4995855;28;20057;-75
2023/07/11 05:23:48;;;;;;;7.57;4.35;;;;;;;;;;4996009;28;20030;-75
2023/07/11 05:26:14;;;;;;;6.45;3.78;;;;;;;;;;4995764;28;20026;-75
2023/07/11 05:28:40;;;;;;;10.77;4.28;;;;;;;;;;4995656;28;20084;-75
2023/07/11 05:31:07;;;;;;;6.80;3.80;;;;;;;;;;4995749;28;20114;-75
2023/07/11 05:33:34;;;;;;;5.40;4.22;;;;;;;;;;4995616;28;20023;-75
2023/07/11 05:38:45;;;;;;;7.80;3.80;;;;;;;;;;4995615;28;20098;-74
2023/07/11 05:41:11;;;;;;;7.40;4.20;;;;;;;;;;4995062;28;20027;-75
2023/07/11 05:43:37;;;;;;;5.85;3.47;;;;;;;;;;4995458;28;20469;-75
2023/07/11 05:46:03;;;;;;;8.52;4.78;;;;;;;;;;4995458;28;20033;-75
2023/07/11 05:48:29;;;;;;;6.30;3.97;;;;;;;;;;4995621;28;20030;-75
2023/07/11 05:51:02;;;;;;;8.00;4.18;;;;;;;;;;4995336;28;20093;-75
2023/07/11 05:53:29;;;;;;;6.88;4.40;;;;;;;;;;4995253;28;20027;-75
2023/07/11 05:55:56;;;;;;;8.30;4.53;;;;;;;;;;4994955;28;20462;-75
2023/07/11 05:58:22;;;;;;;7.85;4.20;;;;;;;;;;5000359;28;20019;-75
2023/07/11 06:00:51;;;;;;;9.00;4.70;;;;;;;;;;5034432;28;20042;-75
2023/07/11 06:03:17;;;;;;;4.72;3.47;;;;;;;;;;5034400;28;20032;-75
2023/07/11 06:05:43;;;;;;;8.50;4.50;;;;;;;;;;5034465;28;20417;-76
2023/07/11 06:08:09;;;;;;;8.75;4.68;;;;;;;;;;5032778;28;20115;-75
2023/07/11 06:10:36;;;;;;;6.05;4.15;;;;;;;;;;5014460;28;20026;-75
2023/07/11 06:13:02;;;;;;;7.25;4.10;;;;;;;;;;5015214;28;20453;-75
2023/07/11 06:15:28;;;;;;;8.48;4.47;;;;;;;;;;5034163;28;20535;-75
2023/07/11 06:17:54;;;;;;;5.80;3.80;;;;;;;;;;5034152;28;20111;-75
2023/07/11 06:20:20;;;;;;;6.43;4.40;;;;;;;;;;5034071;28;20033;-75
2023/07/11 06:22:46;;;;;;;7.55;4.07;;;;;;;;;;5034056;28;20013;-75
2023/07/11 06:25:12;;;;;;;6.72;4.13;;;;;;;;;;5034227;28;20030;-75
2023/07/11 06:27:38;;;;;;;6.38;3.75;;;;;;;;;;5033835;28;20087;-75
2023/07/11 06:30:04;;;;;;;5.72;3.90;;;;;;;;;;5033865;28;20463;-75
2023/07/11 06:32:30;;;;;;;5.20;3.80;;;;;;;;;;5033812;28;20029;-75
2023/07/11 06:34:56;;;;;;;5.85;3.75;;;;;;;;;;5033758;28;20056;-75
2023/07/11 06:37:22;;;;;;;6.75;4.18;;;;;;;;;;5033834;28;20037;-75
2023/07/11 06:39:48;;;;;;;8.80;3.92;;;;;;;;;;5033805;28;20025;-75
2023/07/11 06:42:15;;;;;;;7.43;5.28;;;;;;;;;;5033714;28;20021;-75
2023/07/11 06:44:41;;;;;;;6.53;4.97;;;;;;;;;;5033898;28;20025;-75
2023/07/11 06:47:07;;;;;;;8.52;5.30;;;;;;;;;;5034337;28;20029;-75
2023/07/11 06:49:34;;;;;;;10.15;5.78;;;;;;;;;;5033609;28;20108;-76
2023/07/11 06:52:00;;;;;;;7.38;6.10;;;;;;;;;;5032983;28;20030;-75
2023/07/11 06:54:26;;;;;;;9.35;6.13;;;;;;;;;;5033500;28;20411;-75
2023/07/11 06:56:54;;;;;;;8.40;6.13;;;;;;;;;;5033711;28;20029;-75
2023/07/11 06:59:21;;;;;;;8.90;6.80;;;;;;;;;;5020126;28;20088;-75
2023/07/11 07:01:47;;;;;;;9.70;7.25;;;;;;;;;;5013475;28;20501;-75
2023/07/11 07:04:16;;;;;;;13.88;6.95;;;;;;;;;;5013770;28;20068;-76
2023/07/11 07:06:42;;;;;;;11.13;6.38;;;;;;;;;;5013744;28;20057;-76
2023/07/11 07:09:08;;;;;;;8.40;6.60;;;;;;;;;;5013164;28;20072;-76
2023/07/11 07:11:35;;;;;;;7.95;6.63;;;;;;;;;;5013249;28;20053;-76
2023/07/11 07:14:01;;;;;;;8.25;6.40;;;;;;;;;;5013389;28;20053;-76
2023/07/11 07:16:30;;;;;;;9.68;5.80;;;;;;;;;;5013242;28;20065;-76
2023/07/11 07:18:56;;;;;;;7.88;6.00;;;;;;;;;;5010873;28;20462;-76
2023/07/11 07:21:22;;;;;;;9.60;6.13;;;;;;;;;;4993679;28;20054;-75
2023/07/11 07:23:48;;;;;;;9.35;6.15;;;;;;;;;;4993563;28;20088;-75
2023/07/11 07:26:14;;;;;;;7.10;5.38;;;;;;;;;;4993553;28;20030;-76
2023/07/11 07:28:40;;;;;;;8.68;6.32;;;;;;;;;;4995476;28;20176;-75
2023/07/11 07:31:06;;;;;;;8.15;6.25;;;;;;;;;;5013124;28;20030;-76
2023/07/11 07:33:33;;;;;;;8.85;5.93;;;;;;;;;;5013383;28;20021;-75
2023/07/11 07:36:03;;;;;;;8.40;5.63;;;;;;;;;;5024864;28;20453;-75
2023/07/11 07:38:30;;;;;;;8.48;6.45;;;;;;;;;;5032596;28;20539;-76
2023/07/11 07:40:57;;;;;;;8.02;5.75;;;;;;;;;;5031648;28;20021;-76
2023/07/11 07:43:23;;;;;;;8.05;5.60;;;;;;;;;;5032822;28;20102;-75
2023/07/11 07:45:50;;;;;;;7.80;5.75;;;;;;;;;;5032572;28;20053;-75
2023/07/11 07:48:16;;;;;;;6.03;4.97;;;;;;;;;;5032421;28;20024;-76
2023/07/11 07:50:42;;;;;;;8.90;5.80;;;;;;;;;;5032336;28;20022;-76
2023/07/11 07:53:08;;;;;;;6.13;5.20;;;;;;;;;;5032608;28;20037;-76
2023/07/11 07:55:37;;;;;;;7.30;4.80;;;;;;;;;;5032814;28;20044;-76
2023/07/11 07:58:03;;;;;;;6.35;5.57;;;;;;;;;;5032831;28;20029;-75
2023/07/11 08:00:29;;;;;;;8.60;5.13;;;;;;;;;;5031077;28;20453;-76
2023/07/11 08:02:55;;;;;;;6.22;4.78;;;;;;;;;;5026643;28;20021;-76
2023/07/11 08:05:21;;;;;;;6.85;4.88;;;;;;;;;;5012981;28;20026;-76
2023/07/11 08:07:48;;;;;;;5.03;4.35;;;;;;;;;;5012312;28;20125;-76
2023/07/11 08:10:15;;;;;;;5.80;4.70;;;;;;;;;;5013036;28;20029;-76
2023/07/11 08:12:41;;;;;;;5.45;4.35;;;;;;;;;;5012694;28;20101;-76
2023/07/11 08:15:07;;;;;;;5.82;3.90;;;;;;;;;;5012453;28;20110;-76
2023/07/11 08:17:33;;;;;;;7.65;4.10;;;;;;;;;;5012557;28;20464;-76
2023/07/11 08:19:59;;;;;;;5.55;3.20;;;;;;;;;;5012682;28;20026;-75
2023/07/11 08:22:25;;;;;;;6.18;3.75;;;;;;;;;;5012705;28;20032;-76
2023/07/11 08:24:51;;;;;;;7.32;3.47;;;;;;;;;;5012784;28;20026;-76
2023/07/11 08:27:17;;;;;;;5.80;3.75;;;;;;;;;;5012441;28;20037;-76
2023/07/11 08:29:45;;;;;;;5.95;3.60;;;;;;;;;;5013040;28;20030;-76
2023/07/11 08:32:14;;;;;;;6.40;4.03;;;;;;;;;;5012970;28;20544;-75
2023/07/11 08:34:40;;;;;;;;;;;;;;;;;;5013005;28;20487;-76
2023/07/11 08:37:06;;;;;;;5.05;3.83;;;;;;;;;;5012492;28;19913;-76
2023/07/11 08:39:32;;;;;;;5.05;3.67;;;;;;;;;;5012598;28;20124;-76
2023/07/11 08:42:01;;;;;;;8.52;3.63;;;;;;;;;;5012623;28;20508;-76
2023/07/11 08:44:42;;;;;;;8.10;3.20;;;;;;;;;;5012777;28;20026;-76
2023/07/11 08:47:14;;;;;;;6.90;3.45;;;;;;;;;;5012886;28;20884;-77
2023/07/11 08:49:55;;;;;;;8.50;3.40;;;;;;;;;;5012378;28;20065;-77
2023/07/11 08:52:22;;;;;;;7.78;3.13;;;;;;;;;;5012324;28;20419;-77
2023/07/11 08:54:54;;;;;;;4.85;3.22;;;;;;;;;;5012470;28;20149;-77
2023/07/11 08:57:23;;;;;;;6.45;3.30;;;;;;;;;;5012301;28;20033;-77
2023/07/11 08:59:49;;;;;;;5.50;3.30;;;;;;;;;;5012177;28;20358;-77
2023/07/11 09:02:38;;;;;;;7.00;3.50;;;;;;;;;;5012450;28;20423;-77
2023/07/11 09:05:06;;;;;;;4.43;3.65;;;;;;;;;;4984545;28;20047;-77
2023/07/11 09:07:45;;;;;;;6.78;3.63;;;;;;;;;;5013059;28;20026;-77
2023/07/11 09:10:27;;;;;;;5.53;3.15;;;;;;;;;;5012137;28;20024;-77
2023/07/11 09:13:12;;;;;;;7.53;3.50;;;;;;;;;;5012546;28;20021;-77
2023/07/11 09:15:40;;;;;;;9.60;3.25;;;;;;;;;;5013284;28;20026;-77
2023/07/11 09:18:06;;;;;;;;;;;;;;;;;;5016095;28;20057;-74
2023/07/11 09:20:46;;;;;;;9.80;4.10;;;;;;;;;;5015564;28;20364;-74
2023/07/11 09:23:25;;;;;;;6.55;3.80;;;;;;;;;;5015629;28;20033;-75
2023/07/11 09:25:52;;;;;;;6.07;3.60;;;;;;;;;;5015465;28;20550;-75
2023/07/11 09:28:21;;;;;;;5.28;3.20;;;;;;;;;;5015424;28;20021;-75
2023/07/11 09:30:49;;;;;;;4.82;2.88;;;;;;;;;;5016393;28;20473;-74
2023/07/11 09:33:15;;;;;;;;;;;;;;;;;;5015848;28;20054;-75
2023/07/11 09:35:43;;;;;;;3.72;3.00;;;;;;;;;;5015266;28;20019;-75
2023/07/11 09:38:19;;;;;;;6.50;3.22;;;;;;;;;;5015110;28;20034;-75
2023/07/11 09:40:49;;;;;;;7.55;3.47;;;;;;;;;;5000098;28;20022;-75
2023/07/11 09:43:14;;;;;;;5.30;3.15;;;;;;;;;;5013737;28;20104;-75
2023/07/11 09:45:42;;;;;;;6.03;2.95;;;;;;;;;;5004631;28;20126;-75
2023/07/11 09:48:08;;;;;;;5.18;3.03;;;;;;;;;;5014764;28;20041;-75
2023/07/11 09:50:34;;;;;;;4.60;3.03;;;;;;;;;;5014854;28;20041;-75
2023/07/11 09:53:01;;;;;;;5.80;2.78;;;;;;;;;;5014182;28;20485;-76
2023/07/11 09:55:33;;;;;;;5.03;2.65;;;;;;;;;;4995369;28;20061;-76
2023/07/11 09:58:00;;;;;;;4.95;2.40;;;;;;;;;;4995497;28;20031;-76
2023/07/11 10:00:26;;;;;;;5.53;2.38;;;;;;;;;;4995152;28;20109;-76
2023/07/11 10:02:52;;;;;;;4.47;2.50;;;;;;;;;;4995433;28;20520;-76
2023/07/11 10:05:19;;;;;;;7.13;2.42;;;;;;;;;;4995203;28;20027;-76
2023/07/11 10:07:47;;;;;;;7.30;2.47;;;;;;;;;;4994590;28;20055;-76
2023/07/11 10:10:15;;;;;;;4.03;2.00;;;;;;;;;;4995273;28;20050;-76
2023/07/11 10:12:42;;;;;;;4.55;2.20;;;;;;;;;;4995034;28;20038;-76
2023/07/11 10:15:14;;;;;;;7.13;1.90;;;;;;;;;;4994704;28;20524;-76
2023/07/11 10:17:42;;;;;;;3.38;2.05;;;;;;;;;;5009482;28;20033;-76
2023/07/11 10:20:26;;;;;;;5.22;2.00;;;;;;;;;;5016942;28;20109;-76
2023/07/11 10:22:56;;;;;;;5.22;1.70;;;;;;;;;;5014592;28;20683;-76
2023/07/11 10:25:22;;;;;;;5.70;1.90;;;;;;;;;;5014709;28;20025;-76
2023/07/11 10:27:53;;;;;;;3.53;1.75;;;;;;;;;;5014256;28;20080;-75
2023/07/11 10:30:22;;;;;;;6.90;2.00;;;;;;;;;;5014172;28;20026;-75
2023/07/11 10:32:50;;;;;;;3.30;1.70;;;;;;;;;;5014250;28;20030;-75
2023/07/11 10:35:19;;;;;;;5.10;1.85;;;;;;;;;;5013999;28;20022;-75
2023/07/11 10:38:05;;;;;;;3.78;1.88;;;;;;;;;;5014470;28;20033;-75
2023/07/11 10:40:34;;;;;;;2.38;1.60;;;;;;;;;;5013717;28;20042;-75
2023/07/11 10:43:00;;;;;;;4.95;1.58;;;;;;;;;;5014413;28;20038;-75
2023/07/11 10:45:28;;;;;;;5.93;1.83;;;;;;;;;;5014362;28;20381;-75
2023/07/11 10:47:59;;;;;;;4.93;1.77;;;;;;;;;;5014588;28;20030;-75
2023/07/11 10:50:46;;;;;;;4.60;2.00;;;;;;;;;;5014183;28;20436;-75
2023/07/11 10:53:35;;;;;;;4.43;1.85;;;;;;;;;;5013891;28;20022;-75
2023/07/11 10:56:13;;;;;;;4.03;1.77;;;;;;;;;;5013687;28;20038;-75
2023/07/11 10:58:39;;;;;;;3.60;2.00;;;;;;;;;;5013707;28;20120;-75
2023/07/11 11:01:05;;;;;;;3.97;1.80;;;;;;;;;;5013657;28;20034;-75
2023/07/11 11:03:39;;;;;;;4.85;2.15;;;;;;;;;;5013650;28;20037;-75
2023/07/11 11:06:23;;;;;;;4.28;2.22;;;;;;;;;;5013632;28;20030;-75
2023/07/11 11:09:06;;;;;;;3.60;1.80;;;;;;;;;;5013240;28;20624;-75
2023/07/11 11:11:47;;;;;;;3.75;2.08;;;;;;;;;;5014058;28;20022;-75
2023/07/11 11:14:15;;;;;;;4.50;2.00;;;;;;;;;;5013658;28;20026;-75
2023/07/11 11:16:48;;;;;;;5.78;2.10;;;;;;;;;;5013540;28;20508;-75
2023/07/11 11:19:23;;;;;;;5.97;2.05;;;;;;;;;;5013887;28;20057;-76
2023/07/11 11:22:11;;;;;;;4.95;2.10;;;;;;;;;;5013249;28;20033;-76
2023/07/11 11:24:37;;;;;;;3.20;1.93;;;;;;;;;;5007475;28;20033;-75
2023/07/11 11:27:22;;;;;;;6.43;2.28;;;;;;;;;;4993568;28;20028;-75
2023/07/11 11:30:00;;;;;;;4.10;1.67;;;;;;;;;;4993408;28;20546;-75
2023/07/11 11:32:43;;;;;;;3.47;1.53;;;;;;;;;;4997211;28;20368;-75
2023/07/11 11:35:12;;;;;;;4.07;1.58;;;;;;;;;;5011680;28;20279;-75
2023/07/11 11:37:38;;;;;;;;;;;;;;;;;;5008389;28;20145;-75
2023/07/11 11:40:13;;;;;;;3.97;1.20;;;;;;;;;;5011601;28;19988;-75
2023/07/11 11:42:41;;;;;;;2.72;1.20;;;;;;;;;;5011714;28;20026;-75
2023/07/11 11:45:11;;;;;;;3.72;1.10;;;;;;;;;;5012696;28;20100;-75
2023/07/11 11:47:38;;;;;;;3.47;1.00;;;;;;;;;;5012770;28;20358;-75
2023/07/11 11:50:05;;;;;;;3.15;0.95;;;;;;;;;;5012558;28;20022;-75
2023/07/11 11:52:32;;;;;;;2.05;1.10;;;;;;;;;;5011926;28;20080;-75
2023/07/11 11:54:58;;;;;;;1.45;0.80;;;;;;;;;;5012660;28;20112;-75
2023/07/11 11:57:29;;;;;;;2.03;0.90;;;;;;;;;;5012515;28;20448;-75
2023/07/11 11:59:56;;;;;;;1.10;1.00;;;;;;;;;;5012543;28;20092;-75
2023/07/11 12:02:37;;;;;;;1.85;0.85;;;;;;;;;;5012122;28;20500;-75
2023/07/11 12:05:16;;;;;;;3.50;0.90;;;;;;;;;;5012453;28;20030;-75
2023/07/11 12:07:42;;;;;;;2.38;1.00;;;;;;;;;;5011321;28;20046;-76
2023/07/11 12:10:18;;;;;;;2.38;0.90;;;;;;;;;;5012456;28;20037;-75
2023/07/11 12:12:45;;;;;;;3.22;1.10;;;;;;;;;;5012725;28;20164;-76
2023/07/11 12:15:11;;;;;;;5.75;1.25;;;;;;;;;;5012597;28;20148;-76
2023/07/11 12:17:40;;;;;;;2.30;1.00;;;;;;;;;;5012468;28;20520;-76
2023/07/11 12:20:06;;;;;;;1.90;1.08;;;;;;;;;;5012497;28;20080;-77
2023/07/11 12:22:38;;;;;;;1.45;1.17;;;;;;;;;;5012361;28;20026;-76
2023/07/11 12:25:07;;;;;;;1.50;1.30;;;;;;;;;;5011900;28;20026;-76
2023/07/11 12:27:33;;;;;;;3.10;1.02;;;;;;;;;;5012391;28;20108;-76
2023/07/11 12:30:03;;;;;;;2.08;1.13;;;;;;;;;;5012193;28;20054;-76
2023/07/11 12:32:32;;;;;;;1.83;1.23;;;;;;;;;;5012224;28;20091;-76
2023/07/11 12:34:58;;;;;;;;;;;;;;;;;;5012641;28;20045;-76
2023/07/11 12:37:26;;;;;;;1.92;0.98;;;;;;;;;;5012203;28;20341;-76
2023/07/11 12:40:03;;;;;;;5.93;1.40;;;;;;;;;;5012166;28;20030;-76
2023/07/11 12:42:41;;;;;;;3.20;1.08;;;;;;;;;;5012697;28;20022;-76
2023/07/11 12:45:14;;;;;;;3.70;1.42;;;;;;;;;;5012352;28;20026;-76
2023/07/11 12:47:41;;;;;;;3.85;1.30;;;;;;;;;;5012152;28;20029;-76
2023/07/11 12:50:15;;;;;;;3.85;1.30;;;;;;;;;;5012705;28;20022;-76
2023/07/11 12:52:41;;;;;;;1.88;1.45;;;;;;;;;;5015491;28;20037;-76
2023/07/11 12:55:11;;;;;;;4.05;1.40;;;;;;;;;;5015768;28;20022;-76
2023/07/11 12:57:43;;;;;;;4.25;1.35;;;;;;;;;;5016287;28;20061;-76
2023/07/11 13:00:20;;;;;;;4.68;1.30;;;;;;;;;;5014675;28;20030;-76
2023/07/11 13:02:47;;;;;;;3.85;1.27;;;;;;;;;;5015803;28;20101;-76
2023/07/11 13:05:13;;;;;;;4.95;1.50;;;;;;;;;;5015733;28;20535;-76
2023/07/11 13:07:41;;;;;;;2.97;1.27;;;;;;;;;;5014887;28;20026;-76
2023/07/11 13:10:26;;;;;;;2.38;1.38;;;;;;;;;;5015659;28;20025;-76
2023/07/11 13:12:52;;;;;;;4.63;1.20;;;;;;;;;;5015519;28;20435;-75
2023/07/11 13:15:19;;;;;;;4.18;1.48;;;;;;;;;;5015333;28;20096;-75
2023/07/11 13:17:47;;;;;;;3.25;1.20;;;;;;;;;;5015534;28;20025;-75
2023/07/11 13:20:24;;;;;;;1.85;1.30;;;;;;;;;;5015499;28;20022;-75
2023/07/11 13:22:50;;;;;;;4.78;1.40;;;;;;;;;;5015289;28;20029;-75
2023/07/11 13:25:17;;;;;;;2.80;1.17;;;;;;;;;;5015337;28;20380;-75
2023/07/11 13:27:47;;;;;;;3.40;1.38;;;;;;;;;;5015382;28;20033;-75
2023/07/11 13:30:33;;;;;;;3.42;1.35;;;;;;;;;;5015226;28;20072;-75
2023/07/11 13:32:59;;;;;;;3.17;1.35;;;;;;;;;;5015230;28;20026;-75
2023/07/11 13:35:26;;;;;;;2.90;1.02;;;;;;;;;;5015372;28;20092;-75
2023/07/11 13:37:53;;;;;;;2.78;1.67;;;;;;;;;;5015436;28;20026;-75
2023/07/11 13:40:35;;;;;;;2.97;1.20;;;;;;;;;;5016604;28;20022;-75
2023/07/11 13:43:02;;;;;;;3.17;1.13;;;;;;;;;;5032425;28;20432;-76
2023/07/11 13:45:29;;;;;;;2.90;1.13;;;;;;;;;;5034831;28;20105;-76
2023/07/11 13:47:55;;;;;;;2.15;1.00;;;;;;;;;;5034792;28;20021;-76
2023/07/11 13:50:29;;;;;;;2.33;0.95;;;;;;;;;;5034618;28;20415;-75
2023/07/11 13:52:55;;;;;;;4.18;0.90;;;;;;;;;;5034641;28;20025;-75
2023/07/11 13:55:23;;;;;;;1.20;0.93;;;;;;;;;;5032988;28;20030;-76
2023/07/11 13:57:50;;;;;;;1.73;0.98;;;;;;;;;;5034583;28;20101;-76
2023/07/11 14:00:17;;;;;;;3.15;1.05;;;;;;;;;;5034985;28;20037;-76
2023/07/11 14:02:44;;;;;;;2.28;1.05;;;;;;;;;;5034311;28;20072;-76
2023/07/11 14:05:23;;;;;;;2.15;1.20;;;;;;;;;;5034708;28;20079;-76
2023/07/11 14:07:50;;;;;;;3.63;1.27;;;;;;;;;;5033080;28;20050;-76
2023/07/11 14:10:16;;;;;;;1.27;0.85;;;;;;;;;;5034456;28;20075;-76
2023/07/11 14:12:43;;;;;;;2.67;1.20;;;;;;;;;;5034093;28;20025;-76
2023/07/11 14:15:29;;;;;;;2.70;1.10;;;;;;;;;;5034095;28;20033;-76
2023/07/11 14:17:59;;;;;;;2.15;1.00;;;;;;;;;;5034659;28;20030;-76
2023/07/11 14:20:26;;;;;;;21.33;6.97;;;;;;;;;;5034316;28;20021;-76
2023/07/11 14:22:53;;;;;;;2.95;1.17;;;;;;;;;;5034122;28;20040;-76
2023/07/11 14:25:20;;;;;;;3.35;1.30;;;;;;;;;;5034052;28;20022;-76
2023/07/11 14:27:46;;;;;;;6.50;2.03;;;;;;;;;;5034039;28;20021;-76
2023/07/11 14:30:13;;;;;;;3.78;1.10;;;;;;;;;;5033931;28;20376;-76
2023/07/11 14:32:40;;;;;;;2.30;0.93;;;;;;;;;;5033972;28;20112;-76
2023/07/11 14:35:12;;;;;;;3.28;0.90;;;;;;;;;;5034186;28;20022;-76
2023/07/11 14:37:38;;;;;;;2.92;1.08;;;;;;;;;;5033992;28;20029;-76
2023/07/11 14:40:05;;;;;;;2.20;1.10;;;;;;;;;;5033732;28;20032;-76
2023/07/11 14:42:31;;;;;;;3.40;1.50;;;;;;;;;;5033673;28;20033;-76
2023/07/11 14:44:57;;;;;;;5.13;1.33;;;;;;;;;;5033650;28;20030;-76
2023/07/11 14:47:24;;;;;;;1.02;0.80;;;;;;;;;;5033706;28;20100;-76
2023/07/11 14:49:50;;;;;;;2.83;1.45;;;;;;;;;;5033536;28;20482;-76
2023/07/11 14:52:23;;;;;;;2.90;1.38;;;;;;;;;;5033567;28;20057;-76